createdAt,value
2016-12-10T00:00:25.128Z,1018.21
2016-12-10T00:00:51.228Z,1018.21
2016-12-10T00:01:17.328Z,1018.21
2016-12-10T00:01:43.437Z,1018.19
2016-12-10T00:02:09.530Z,1018.25
2016-12-10T00:02:35.632Z,1018.21
2016-12-10T00:03:01.731Z,1018.2
2016-12-10T00:03:27.840Z,1018.21
2016-12-10T00:03:53.953Z,1018.22
2016-12-10T00:04:20.050Z,1018.23
2016-12-10T00:04:46.153Z,1018.19
2016-12-10T00:05:12.265Z,1018.21
2016-12-10T00:05:38.359Z,1018.2
2016-12-10T00:06:04.461Z,1018.18
2016-12-10T00:06:30.577Z,1018.17
2016-12-10T00:06:56.677Z,1018.23
2016-12-10T00:07:22.773Z,1018.21
2016-12-10T00:07:48.891Z,1018.25
2016-12-10T00:08:14.992Z,1018.25
2016-12-10T00:08:41.101Z,1018.17
2016-12-10T00:09:07.195Z,1018.24
2016-12-10T00:09:33.295Z,1018.18
2016-12-10T00:09:59.409Z,1018.27
2016-12-10T00:10:25.509Z,1018.22
2016-12-10T00:10:51.604Z,1018.18
2016-12-10T00:11:17.717Z,1018.2
2016-12-10T00:11:43.818Z,1018.23
2016-12-10T00:12:09.915Z,1018.25
2016-12-10T00:12:36.029Z,1018.32
2016-12-10T00:13:02.130Z,1018.27
2016-12-10T00:13:28.226Z,1018.26
2016-12-10T00:13:54.338Z,1018.25
2016-12-10T00:14:20.435Z,1018.23
2016-12-10T00:14:46.549Z,1018.25
2016-12-10T00:15:12.650Z,1018.25
2016-12-10T00:15:38.752Z,1018.29
2016-12-10T00:16:04.861Z,1018.28
2016-12-10T00:16:30.966Z,1018.25
2016-12-10T00:16:57.061Z,1018.3
2016-12-10T00:17:23.171Z,1018.26
2016-12-10T00:17:49.281Z,1018.25
2016-12-10T00:18:15.379Z,1018.28
2016-12-10T00:18:41.486Z,1018.21
2016-12-10T00:19:07.598Z,1018.27
2016-12-10T00:19:33.693Z,1018.29
2016-12-10T00:19:59.802Z,1018.25
2016-12-10T00:20:25.899Z,1018.27
2016-12-10T00:20:52.009Z,1018.25
2016-12-10T00:21:18.122Z,1018.26
2016-12-10T00:21:44.215Z,1018.23
2016-12-10T00:22:10.316Z,1018.29
2016-12-10T00:22:36.429Z,1018.24
2016-12-10T00:23:02.526Z,1018.25
2016-12-10T00:23:28.625Z,1018.2
2016-12-10T00:23:54.738Z,1018.27
2016-12-10T00:24:20.863Z,1018.19
2016-12-10T00:24:46.960Z,1018.22
2016-12-10T00:25:13.074Z,1018.2
2016-12-10T00:25:39.179Z,1018.2
2016-12-10T00:26:05.278Z,1018.25
2016-12-10T00:26:31.389Z,1018.19
2016-12-10T00:26:57.495Z,1018.23
2016-12-10T00:27:23.586Z,1018.21
2016-12-10T00:27:49.693Z,1018.22
2016-12-10T00:28:15.800Z,1018.24
2016-12-10T00:28:41.896Z,1018.23
2016-12-10T00:29:07.999Z,1018.27
2016-12-10T00:29:34.110Z,1018.25
2016-12-10T00:30:00.206Z,1018.29
2016-12-10T00:30:26.308Z,1018.26
2016-12-10T00:30:52.408Z,1018.29
2016-12-10T00:31:18.521Z,1018.25
2016-12-10T00:31:44.631Z,1018.24
2016-12-10T00:32:10.725Z,1018.21
2016-12-10T00:32:36.832Z,1018.23
2016-12-10T00:33:02.945Z,1018.27
2016-12-10T00:33:29.040Z,1018.26
2016-12-10T00:33:55.143Z,1018.27
2016-12-10T00:34:21.278Z,1018.22
2016-12-10T00:34:47.379Z,1018.26
2016-12-10T00:35:13.474Z,1018.24
2016-12-10T00:35:39.589Z,1018.21
2016-12-10T00:36:05.720Z,1018.2
2016-12-10T00:36:31.826Z,1018.21
2016-12-10T00:36:57.925Z,1018.2
2016-12-10T00:37:24.025Z,1018.19
2016-12-10T00:37:50.135Z,1018.23
2016-12-10T00:38:16.232Z,1018.23
2016-12-10T00:38:42.330Z,1018.22
2016-12-10T00:39:08.441Z,1018.19
2016-12-10T00:39:34.541Z,1018.18
2016-12-10T00:40:00.635Z,1018.21
2016-12-10T00:40:26.743Z,1018.22
2016-12-10T00:40:52.848Z,1018.17
2016-12-10T00:41:18.946Z,1018.19
2016-12-10T00:41:45.054Z,1018.2
2016-12-10T00:42:11.149Z,1018.19
2016-12-10T00:42:37.262Z,1018.12
2016-12-10T00:43:03.364Z,1018.19
2016-12-10T00:43:29.456Z,1018.15
2016-12-10T00:43:55.561Z,1018.15
2016-12-10T00:44:21.669Z,1018.18
2016-12-10T00:44:47.766Z,1018.12
2016-12-10T00:45:13.876Z,1018.2
2016-12-10T00:45:39.983Z,1018.11
2016-12-10T00:46:06.080Z,1018.11
2016-12-10T00:46:32.187Z,1018.14
2016-12-10T00:46:58.298Z,1018.15
2016-12-10T00:47:24.398Z,1018.13
2016-12-10T00:47:50.504Z,1018.16
2016-12-10T00:48:16.627Z,1018.1
2016-12-10T00:48:42.735Z,1018.13
2016-12-10T00:49:08.849Z,1018.1
2016-12-10T00:49:34.943Z,1018.1
2016-12-10T00:50:01.059Z,1018.11
2016-12-10T00:50:27.159Z,1018.1
2016-12-10T00:50:53.255Z,1018.07
2016-12-10T00:51:19.356Z,1018.1
2016-12-10T00:51:45.468Z,1018.1
2016-12-10T00:52:11.569Z,1018.04
2016-12-10T00:52:37.665Z,1018.07
2016-12-10T00:53:03.772Z,1018.08
2016-12-10T00:53:29.873Z,1018.07
2016-12-10T00:53:55.984Z,1018.03
2016-12-10T00:54:22.081Z,1018.05
2016-12-10T00:54:48.186Z,1017.99
2016-12-10T00:55:14.299Z,1018.04
2016-12-10T00:55:40.396Z,1018.04
2016-12-10T00:56:06.490Z,1018.01
2016-12-10T00:56:32.599Z,1018.02
2016-12-10T00:56:58.697Z,1018.05
2016-12-10T00:57:24.793Z,1018.02
2016-12-10T00:57:50.908Z,1018.03
2016-12-10T00:58:17.012Z,1018.02
2016-12-10T00:58:43.116Z,1018.01
2016-12-10T00:59:09.215Z,1018
2016-12-10T00:59:35.311Z,1018.02
2016-12-10T01:00:01.427Z,1018.06
2016-12-10T01:00:27.530Z,1018.04
2016-12-10T01:00:53.627Z,1018.05
2016-12-10T01:01:19.738Z,1018.08
2016-12-10T01:01:45.843Z,1018.12
2016-12-10T01:02:11.935Z,1018.11
2016-12-10T01:02:38.049Z,1018.05
2016-12-10T01:03:04.465Z,1018.05
2016-12-10T01:03:30.563Z,1018.06
2016-12-10T01:03:56.669Z,1018.04
2016-12-10T01:04:22.770Z,1018.05
2016-12-10T01:04:48.887Z,1018.05
2016-12-10T01:05:14.988Z,1018.09
2016-12-10T01:05:41.087Z,1018.04
2016-12-10T01:06:07.196Z,1018.07
2016-12-10T01:06:33.305Z,1018.06
2016-12-10T01:06:59.396Z,1018.09
2016-12-10T01:07:25.508Z,1018.05
2016-12-10T01:07:51.614Z,1018.03
2016-12-10T01:08:17.712Z,1018.01
2016-12-10T01:08:43.814Z,1018.03
2016-12-10T01:09:09.928Z,1018.05
2016-12-10T01:09:36.025Z,1018.03
2016-12-10T01:10:02.122Z,1018.04
2016-12-10T01:10:28.243Z,1018.08
2016-12-10T01:10:54.342Z,1018.02
2016-12-10T01:11:20.437Z,1018.07
2016-12-10T01:11:46.550Z,1018.04
2016-12-10T01:12:12.660Z,1018.07
2016-12-10T01:12:38.758Z,1018.01
2016-12-10T01:13:04.870Z,1018.04
2016-12-10T01:13:30.978Z,1018.04
2016-12-10T01:13:57.074Z,1018.08
2016-12-10T01:14:23.183Z,1018.05
2016-12-10T01:14:49.296Z,1018.04
2016-12-10T01:15:15.399Z,1018.08
2016-12-10T01:15:41.510Z,1018.08
2016-12-10T01:16:07.606Z,1018.08
2016-12-10T01:16:33.715Z,1018.04
2016-12-10T01:16:59.823Z,1018.07
2016-12-10T01:17:25.920Z,1018.08
2016-12-10T01:17:52.025Z,1018.04
2016-12-10T01:18:18.138Z,1018.01
2016-12-10T01:18:44.234Z,1018.07
2016-12-10T01:19:10.336Z,1018.11
2016-12-10T01:19:36.447Z,1018.1
2016-12-10T01:20:02.546Z,1018.09
2016-12-10T01:20:28.638Z,1018.12
2016-12-10T01:20:54.751Z,1018.1
2016-12-10T01:21:20.856Z,1018.11
2016-12-10T01:21:46.969Z,1018.03
2016-12-10T01:22:13.068Z,1018.1
2016-12-10T01:22:39.171Z,1018.13
2016-12-10T01:23:05.282Z,1018.05
2016-12-10T01:23:31.381Z,1018.11
2016-12-10T01:23:57.477Z,1018.06
2016-12-10T01:24:23.592Z,1018.06
2016-12-10T01:24:49.695Z,1018.15
2016-12-10T01:25:15.792Z,1018.07
2016-12-10T01:25:41.905Z,1018.09
2016-12-10T01:26:08.004Z,1018.12
2016-12-10T01:26:34.110Z,1018.11
2016-12-10T01:27:00.212Z,1018.06
2016-12-10T01:27:26.306Z,1018.06
2016-12-10T01:27:52.419Z,1018.04
2016-12-10T01:28:18.517Z,1018.06
2016-12-10T01:28:44.616Z,1018.09
2016-12-10T01:29:10.732Z,1018.01
2016-12-10T01:29:36.837Z,1018.06
2016-12-10T01:30:02.935Z,1018.03
2016-12-10T01:30:29.044Z,1017.99
2016-12-10T01:30:55.158Z,1018.03
2016-12-10T01:31:21.248Z,1018.04
2016-12-10T01:31:47.352Z,1018.06
2016-12-10T01:32:13.451Z,1018.05
2016-12-10T01:32:39.563Z,1017.92
2016-12-10T01:33:05.667Z,1017.98
2016-12-10T01:33:31.764Z,1018
2016-12-10T01:33:57.869Z,1018.05
2016-12-10T01:34:23.977Z,1018.08
2016-12-10T01:34:50.070Z,1018.03
2016-12-10T01:35:16.175Z,1018.03
2016-12-10T01:35:42.290Z,1018.04
2016-12-10T01:36:08.387Z,1018.05
2016-12-10T01:36:34.491Z,1018.08
2016-12-10T01:37:00.599Z,1018.1
2016-12-10T01:37:26.700Z,1018.1
2016-12-10T01:37:52.813Z,1018.04
2016-12-10T01:38:18.907Z,1018.09
2016-12-10T01:38:45.016Z,1018.09
2016-12-10T01:39:11.125Z,1018.13
2016-12-10T01:39:37.224Z,1018.13
2016-12-10T01:40:03.330Z,1018.17
2016-12-10T01:40:29.442Z,1018.15
2016-12-10T01:40:55.537Z,1018.23
2016-12-10T01:41:21.635Z,1018.17
2016-12-10T01:41:47.748Z,1018.19
2016-12-10T01:42:13.850Z,1018.19
2016-12-10T01:42:39.950Z,1018.18
2016-12-10T01:43:06.089Z,1018.18
2016-12-10T01:43:32.189Z,1018.16
2016-12-10T01:43:58.304Z,1018.17
2016-12-10T01:44:24.403Z,1018.2
2016-12-10T01:44:50.497Z,1018.16
2016-12-10T01:45:16.611Z,1018.16
2016-12-10T01:45:42.714Z,1018.15
2016-12-10T01:46:08.811Z,1018.2
2016-12-10T01:46:34.925Z,1018.19
2016-12-10T01:47:01.031Z,1018.17
2016-12-10T01:47:27.127Z,1018.19
2016-12-10T01:47:53.236Z,1018.15
2016-12-10T01:48:19.342Z,1018.22
2016-12-10T01:48:45.440Z,1018.21
2016-12-10T01:49:11.547Z,1018.2
2016-12-10T01:49:37.644Z,1018.19
2016-12-10T01:50:03.752Z,1018.21
2016-12-10T01:50:29.855Z,1018.21
2016-12-10T01:50:55.953Z,1018.21
2016-12-10T01:51:22.060Z,1018.2
2016-12-10T01:51:48.173Z,1018.19
2016-12-10T01:52:14.265Z,1018.21
2016-12-10T01:52:40.369Z,1018.21
2016-12-10T01:53:06.481Z,1018.19
2016-12-10T01:53:32.580Z,1018.17
2016-12-10T01:53:58.680Z,1018.14
2016-12-10T01:54:24.793Z,1018.11
2016-12-10T01:54:50.892Z,1018.14
2016-12-10T01:55:16.985Z,1018.16
2016-12-10T01:55:43.097Z,1018.13
2016-12-10T01:56:09.197Z,1018.12
2016-12-10T01:56:35.293Z,1018.12
2016-12-10T01:57:01.405Z,1018.13
2016-12-10T01:57:27.511Z,1018.09
2016-12-10T01:57:53.607Z,1018.09
2016-12-10T01:58:19.712Z,1018.08
2016-12-10T01:58:45.823Z,1018.07
2016-12-10T01:59:11.919Z,1018.08
2016-12-10T01:59:38.023Z,1018.02
2016-12-10T02:00:04.117Z,1018.05
2016-12-10T02:00:30.258Z,1018
2016-12-10T02:00:56.361Z,1018.01
2016-12-10T02:01:22.461Z,1017.98
2016-12-10T02:01:48.564Z,1017.99
2016-12-10T02:02:14.673Z,1018.03
2016-12-10T02:02:40.766Z,1017.98
2016-12-10T02:03:06.874Z,1017.99
2016-12-10T02:03:32.984Z,1017.94
2016-12-10T02:03:59.080Z,1018.02
2016-12-10T02:04:25.207Z,1017.99
2016-12-10T02:04:51.315Z,1018
2016-12-10T02:05:17.414Z,1017.97
2016-12-10T02:05:43.525Z,1018.02
2016-12-10T02:06:09.618Z,1017.97
2016-12-10T02:06:35.722Z,1017.98
2016-12-10T02:07:01.829Z,1017.93
2016-12-10T02:07:27.925Z,1017.97
2016-12-10T02:07:54.030Z,1017.96
2016-12-10T02:08:20.143Z,1017.96
2016-12-10T02:08:46.244Z,1018
2016-12-10T02:09:12.339Z,1017.95
2016-12-10T02:09:38.456Z,1017.99
2016-12-10T02:10:04.562Z,1018.03
2016-12-10T02:10:30.653Z,1017.94
2016-12-10T02:10:56.769Z,1017.92
2016-12-10T02:11:22.864Z,1017.92
2016-12-10T02:11:48.979Z,1017.92
2016-12-10T02:12:15.083Z,1017.89
2016-12-10T02:12:41.181Z,1017.88
2016-12-10T02:13:07.296Z,1017.89
2016-12-10T02:13:33.405Z,1017.91
2016-12-10T02:13:59.505Z,1017.91
2016-12-10T02:14:25.621Z,1017.84
2016-12-10T02:14:51.719Z,1017.85
2016-12-10T02:15:17.813Z,1017.85
2016-12-10T02:15:43.925Z,1017.9
2016-12-10T02:16:10.036Z,1017.84
2016-12-10T02:16:36.132Z,1017.88
2016-12-10T02:17:02.235Z,1017.84
2016-12-10T02:17:28.327Z,1017.91
2016-12-10T02:17:54.440Z,1017.86
2016-12-10T02:18:20.542Z,1017.87
2016-12-10T02:18:46.644Z,1017.89
2016-12-10T02:19:12.750Z,1017.87
2016-12-10T02:19:38.861Z,1017.86
2016-12-10T02:20:04.954Z,1017.85
2016-12-10T02:20:31.062Z,1017.84
2016-12-10T02:20:57.170Z,1017.9
2016-12-10T02:21:23.268Z,1017.83
2016-12-10T02:21:49.373Z,1017.86
2016-12-10T02:22:15.475Z,1017.9
2016-12-10T02:22:41.582Z,1017.8
2016-12-10T02:23:07.693Z,1017.82
2016-12-10T02:23:33.792Z,1017.83
2016-12-10T02:23:59.898Z,1017.82
2016-12-10T02:24:26.008Z,1017.81
2016-12-10T02:24:52.105Z,1017.8
2016-12-10T02:25:18.210Z,1017.79
2016-12-10T02:25:44.321Z,1017.78
2016-12-10T02:26:10.421Z,1017.8
2016-12-10T02:26:36.519Z,1017.8
2016-12-10T02:27:02.634Z,1017.8
2016-12-10T02:27:28.740Z,1017.79
2016-12-10T02:27:54.848Z,1017.8
2016-12-10T02:28:20.943Z,1017.81
2016-12-10T02:28:47.047Z,1017.78
2016-12-10T02:29:13.207Z,1017.76
2016-12-10T02:29:39.309Z,1017.78
2016-12-10T02:30:05.405Z,1017.86
2016-12-10T02:30:31.521Z,1017.79
2016-12-10T02:30:57.625Z,1017.75
2016-12-10T02:31:23.727Z,1017.72
2016-12-10T02:31:49.837Z,1017.76
2016-12-10T02:32:15.943Z,1017.75
2016-12-10T02:32:42.040Z,1017.72
2016-12-10T02:33:08.151Z,1017.75
2016-12-10T02:33:34.245Z,1017.76
2016-12-10T02:34:00.666Z,1017.77
2016-12-10T02:34:26.767Z,1017.79
2016-12-10T02:34:52.859Z,1017.76
2016-12-10T02:35:18.976Z,1017.76
2016-12-10T02:35:45.080Z,1017.79
2016-12-10T02:36:11.180Z,1017.74
2016-12-10T02:36:37.288Z,1017.8
2016-12-10T02:37:03.404Z,1017.76
2016-12-10T02:37:29.497Z,1017.77
2016-12-10T02:37:55.600Z,1017.78
2016-12-10T02:38:21.706Z,1017.74
2016-12-10T02:38:47.803Z,1017.75
2016-12-10T02:39:14.005Z,1017.8
2016-12-10T02:39:40.117Z,1017.79
2016-12-10T02:40:06.220Z,1017.75
2016-12-10T02:40:32.320Z,1017.72
2016-12-10T02:40:58.433Z,1017.75
2016-12-10T02:41:24.535Z,1017.69
2016-12-10T02:41:50.628Z,1017.71
2016-12-10T02:42:16.739Z,1017.74
2016-12-10T02:42:42.848Z,1017.73
2016-12-10T02:43:08.944Z,1017.7
2016-12-10T02:43:35.048Z,1017.67
2016-12-10T02:44:01.159Z,1017.7
2016-12-10T02:44:27.283Z,1017.7
2016-12-10T02:44:53.386Z,1017.64
2016-12-10T02:45:19.480Z,1017.69
2016-12-10T02:45:45.591Z,1017.65
2016-12-10T02:46:11.697Z,1017.66
2016-12-10T02:46:37.794Z,1017.66
2016-12-10T02:47:03.902Z,1017.62
2016-12-10T02:47:30.011Z,1017.63
2016-12-10T02:47:56.107Z,1017.66
2016-12-10T02:48:22.211Z,1017.65
2016-12-10T02:48:48.321Z,1017.63
2016-12-10T02:49:14.421Z,1017.58
2016-12-10T02:49:40.523Z,1017.6
2016-12-10T02:50:06.627Z,1017.6
2016-12-10T02:50:32.735Z,1017.6
2016-12-10T02:50:58.844Z,1017.54
2016-12-10T02:51:24.938Z,1017.58
2016-12-10T02:51:51.047Z,1017.52
2016-12-10T02:52:17.183Z,1017.44
2016-12-10T02:52:43.280Z,1017.48
2016-12-10T02:53:09.382Z,1017.49
2016-12-10T02:53:35.495Z,1017.43
2016-12-10T02:54:01.595Z,1017.47
2016-12-10T02:54:27.718Z,1017.43
2016-12-10T02:54:53.828Z,1017.47
2016-12-10T02:55:19.931Z,1017.51
2016-12-10T02:55:46.042Z,1017.45
2016-12-10T02:56:12.137Z,1017.41
2016-12-10T02:56:38.240Z,1017.39
2016-12-10T02:57:04.376Z,1017.34
2016-12-10T02:57:30.479Z,1017.39
2016-12-10T02:57:56.575Z,1017.36
2016-12-10T02:58:22.689Z,1017.32
2016-12-10T02:58:48.788Z,1017.33
2016-12-10T02:59:14.878Z,1017.34
2016-12-10T02:59:40.991Z,1017.32
2016-12-10T03:00:07.098Z,1017.31
2016-12-10T03:00:33.195Z,1017.31
2016-12-10T03:00:59.302Z,1017.32
2016-12-10T03:01:25.405Z,1017.27
2016-12-10T03:01:51.516Z,1017.28
2016-12-10T03:02:17.615Z,1017.26
2016-12-10T03:02:43.713Z,1017.31
2016-12-10T03:03:09.821Z,1017.27
2016-12-10T03:03:35.928Z,1017.24
2016-12-10T03:04:02.026Z,1017.26
2016-12-10T03:04:28.139Z,1017.29
2016-12-10T03:04:54.250Z,1017.17
2016-12-10T03:05:20.347Z,1017.26
2016-12-10T03:05:46.454Z,1017.15
2016-12-10T03:06:12.591Z,1017.19
2016-12-10T03:06:38.688Z,1017.21
2016-12-10T03:07:04.797Z,1017.13
2016-12-10T03:07:30.894Z,1017.22
2016-12-10T03:07:57.000Z,1017.13
2016-12-10T03:08:23.111Z,1017.15
2016-12-10T03:08:49.206Z,1017.15
2016-12-10T03:09:15.310Z,1017.18
2016-12-10T03:09:41.424Z,1017.12
2016-12-10T03:10:07.520Z,1017.09
2016-12-10T03:10:33.624Z,1017.09
2016-12-10T03:10:59.734Z,1017.09
2016-12-10T03:11:25.833Z,1017.08
2016-12-10T03:11:51.928Z,1017.12
2016-12-10T03:12:18.037Z,1017.08
2016-12-10T03:12:44.145Z,1017.04
2016-12-10T03:13:10.259Z,1017.05
2016-12-10T03:13:36.741Z,1017.08
2016-12-10T03:14:02.844Z,1017.05
2016-12-10T03:14:28.945Z,1017.05
2016-12-10T03:14:55.052Z,1017.01
2016-12-10T03:15:21.166Z,1017.05
2016-12-10T03:15:47.261Z,1017.17
2016-12-10T03:16:13.367Z,1016.99
2016-12-10T03:16:39.479Z,1017.02
2016-12-10T03:17:05.575Z,1017.05
2016-12-10T03:17:31.675Z,1016.99
2016-12-10T03:17:57.780Z,1017.03
2016-12-10T03:18:23.888Z,1017.02
2016-12-10T03:18:49.997Z,1016.99
2016-12-10T03:19:16.090Z,1016.98
2016-12-10T03:19:42.194Z,1016.96
2016-12-10T03:20:08.304Z,1016.96
2016-12-10T03:20:34.404Z,1016.93
2016-12-10T03:21:00.507Z,1016.96
2016-12-10T03:21:26.616Z,1016.94
2016-12-10T03:21:52.714Z,1016.9
2016-12-10T03:22:18.813Z,1016.82
2016-12-10T03:22:44.924Z,1016.89
2016-12-10T03:23:11.042Z,1016.84
2016-12-10T03:23:37.121Z,1016.86
2016-12-10T03:24:03.231Z,1016.86
2016-12-10T03:24:29.343Z,1016.81
2016-12-10T03:24:55.436Z,1016.81
2016-12-10T03:25:21.541Z,1016.75
2016-12-10T03:25:47.654Z,1016.73
2016-12-10T03:26:13.746Z,1016.71
2016-12-10T03:26:39.852Z,1016.77
2016-12-10T03:27:05.964Z,1016.64
2016-12-10T03:27:32.061Z,1016.69
2016-12-10T03:27:58.167Z,1016.74
2016-12-10T03:28:24.279Z,1016.69
2016-12-10T03:28:50.376Z,1016.65
2016-12-10T03:29:16.483Z,1016.67
2016-12-10T03:29:42.579Z,1016.68
2016-12-10T03:30:08.684Z,1016.63
2016-12-10T03:30:34.795Z,1016.68
2016-12-10T03:31:00.893Z,1016.67
2016-12-10T03:31:26.991Z,1016.67
2016-12-10T03:31:53.107Z,1016.6
2016-12-10T03:32:19.205Z,1016.61
2016-12-10T03:32:45.298Z,1016.62
2016-12-10T03:33:11.417Z,1016.61
2016-12-10T03:33:37.520Z,1016.63
2016-12-10T03:34:03.619Z,1016.6
2016-12-10T03:34:30.029Z,1016.61
2016-12-10T03:34:56.129Z,1016.61
2016-12-10T03:35:22.238Z,1016.6
2016-12-10T03:35:48.335Z,1016.62
2016-12-10T03:36:14.435Z,1016.57
2016-12-10T03:36:40.547Z,1016.53
2016-12-10T03:37:06.650Z,1016.56
2016-12-10T03:37:32.746Z,1016.55
2016-12-10T03:37:58.856Z,1016.52
2016-12-10T03:38:24.963Z,1016.55
2016-12-10T03:38:51.055Z,1016.52
2016-12-10T03:39:17.165Z,1016.56
2016-12-10T03:39:43.275Z,1016.52
2016-12-10T03:40:09.373Z,1016.55
2016-12-10T03:40:35.478Z,1016.52
2016-12-10T03:41:01.572Z,1016.54
2016-12-10T03:41:27.685Z,1016.51
2016-12-10T03:41:53.793Z,1016.53
2016-12-10T03:42:19.887Z,1016.52
2016-12-10T03:42:45.998Z,1016.55
2016-12-10T03:43:12.109Z,1016.53
2016-12-10T03:43:38.201Z,1016.53
2016-12-10T03:44:04.304Z,1016.57
2016-12-10T03:44:30.415Z,1016.62
2016-12-10T03:44:56.510Z,1016.59
2016-12-10T03:45:22.607Z,1016.58
2016-12-10T03:45:48.742Z,1016.61
2016-12-10T03:46:14.850Z,1016.64
2016-12-10T03:46:40.963Z,1016.62
2016-12-10T03:47:07.057Z,1016.6
2016-12-10T03:47:33.165Z,1016.6
2016-12-10T03:47:59.279Z,1016.66
2016-12-10T03:48:25.376Z,1016.65
2016-12-10T03:48:51.478Z,1016.61
2016-12-10T03:49:17.587Z,1016.63
2016-12-10T03:49:43.684Z,1016.63
2016-12-10T03:50:09.778Z,1016.58
2016-12-10T03:50:35.896Z,1016.56
2016-12-10T03:51:01.997Z,1016.63
2016-12-10T03:51:28.107Z,1016.59
2016-12-10T03:51:54.201Z,1016.61
2016-12-10T03:52:20.301Z,1016.54
2016-12-10T03:52:46.415Z,1016.58
2016-12-10T03:53:12.515Z,1016.53
2016-12-10T03:53:38.607Z,1016.52
2016-12-10T03:54:04.717Z,1016.52
2016-12-10T03:54:30.820Z,1016.48
2016-12-10T03:54:56.916Z,1016.58
2016-12-10T03:55:23.037Z,1016.48
2016-12-10T03:55:49.129Z,1016.46
2016-12-10T03:56:15.224Z,1016.49
2016-12-10T03:56:41.328Z,1016.45
2016-12-10T03:57:07.421Z,1016.43
2016-12-10T03:57:33.535Z,1016.44
2016-12-10T03:57:59.634Z,1016.42
2016-12-10T03:58:25.734Z,1016.44
2016-12-10T03:58:51.849Z,1016.48
2016-12-10T03:59:17.946Z,1016.43
2016-12-10T03:59:44.093Z,1016.45
2016-12-10T04:00:10.202Z,1016.52
2016-12-10T04:00:36.313Z,1016.4
2016-12-10T04:01:02.404Z,1016.44
2016-12-10T04:01:28.510Z,1016.4
2016-12-10T04:01:54.622Z,1016.48
2016-12-10T04:02:20.718Z,1016.39
2016-12-10T04:02:46.831Z,1016.46
2016-12-10T04:03:12.922Z,1016.47
2016-12-10T04:03:39.028Z,1016.47
2016-12-10T04:04:05.147Z,1016.41
2016-12-10T04:04:31.260Z,1016.41
2016-12-10T04:04:57.663Z,1016.49
2016-12-10T04:05:23.774Z,1016.47
2016-12-10T04:05:49.867Z,1016.48
2016-12-10T04:06:15.965Z,1016.52
2016-12-10T04:06:42.075Z,1016.46
2016-12-10T04:07:08.177Z,1016.57
2016-12-10T04:07:34.278Z,1016.57
2016-12-10T04:08:00.388Z,1016.52
2016-12-10T04:08:26.492Z,1016.56
2016-12-10T04:08:52.587Z,1016.58
2016-12-10T04:09:18.701Z,1016.56
2016-12-10T04:09:44.803Z,1016.6
2016-12-10T04:10:10.911Z,1016.58
2016-12-10T04:10:37.002Z,1016.62
2016-12-10T04:11:03.112Z,1016.57
2016-12-10T04:11:29.202Z,1016.53
2016-12-10T04:11:55.310Z,1016.56
2016-12-10T04:12:21.414Z,1016.56
2016-12-10T04:12:47.507Z,1016.56
2016-12-10T04:13:13.612Z,1016.55
2016-12-10T04:13:39.708Z,1016.5
2016-12-10T04:14:05.816Z,1016.48
2016-12-10T04:14:31.929Z,1016.5
2016-12-10T04:14:58.023Z,1016.49
2016-12-10T04:15:24.126Z,1016.53
2016-12-10T04:15:50.232Z,1016.49
2016-12-10T04:16:16.326Z,1016.45
2016-12-10T04:16:42.427Z,1016.52
2016-12-10T04:17:08.540Z,1016.48
2016-12-10T04:17:34.636Z,1016.5
2016-12-10T04:18:00.736Z,1016.49
2016-12-10T04:18:26.849Z,1016.46
2016-12-10T04:18:52.952Z,1016.49
2016-12-10T04:19:19.058Z,1016.52
2016-12-10T04:19:45.152Z,1016.48
2016-12-10T04:20:11.276Z,1016.51
2016-12-10T04:20:37.384Z,1016.45
2016-12-10T04:21:03.481Z,1016.51
2016-12-10T04:21:29.584Z,1016.49
2016-12-10T04:21:55.697Z,1016.51
2016-12-10T04:22:21.799Z,1016.47
2016-12-10T04:22:47.891Z,1016.49
2016-12-10T04:23:14.001Z,1016.51
2016-12-10T04:23:40.106Z,1016.54
2016-12-10T04:24:06.208Z,1016.5
2016-12-10T04:24:32.319Z,1016.51
2016-12-10T04:24:58.413Z,1016.48
2016-12-10T04:25:24.524Z,1016.47
2016-12-10T04:25:50.630Z,1016.48
2016-12-10T04:26:16.751Z,1016.48
2016-12-10T04:26:42.859Z,1016.46
2016-12-10T04:27:08.962Z,1016.42
2016-12-10T04:27:35.063Z,1016.44
2016-12-10T04:28:01.190Z,1016.41
2016-12-10T04:28:27.301Z,1016.44
2016-12-10T04:28:53.393Z,1016.49
2016-12-10T04:29:19.501Z,1016.49
2016-12-10T04:29:45.610Z,1016.49
2016-12-10T04:30:11.757Z,1016.46
2016-12-10T04:30:37.866Z,1016.49
2016-12-10T04:31:03.962Z,1016.45
2016-12-10T04:31:30.068Z,1016.5
2016-12-10T04:31:56.184Z,1016.45
2016-12-10T04:32:22.278Z,1016.47
2016-12-10T04:32:48.385Z,1016.48
2016-12-10T04:33:14.494Z,1016.5
2016-12-10T04:33:40.593Z,1016.5
2016-12-10T04:34:06.692Z,1016.43
2016-12-10T04:34:32.799Z,1016.45
2016-12-10T04:34:58.899Z,1016.47
2016-12-10T04:35:24.998Z,1016.48
2016-12-10T04:35:51.108Z,1016.43
2016-12-10T04:36:17.213Z,1016.46
2016-12-10T04:36:43.319Z,1016.48
2016-12-10T04:37:09.414Z,1016.44
2016-12-10T04:37:35.514Z,1016.51
2016-12-10T04:38:01.629Z,1016.42
2016-12-10T04:38:27.726Z,1016.44
2016-12-10T04:38:53.820Z,1016.46
2016-12-10T04:39:19.935Z,1016.52
2016-12-10T04:39:46.039Z,1016.39
2016-12-10T04:40:12.138Z,1016.4
2016-12-10T04:40:38.250Z,1016.4
2016-12-10T04:41:04.352Z,1016.38
2016-12-10T04:41:30.458Z,1016.33
2016-12-10T04:41:56.558Z,1016.34
2016-12-10T04:42:22.682Z,1016.4
2016-12-10T04:42:48.800Z,1016.33
2016-12-10T04:43:14.903Z,1016.32
2016-12-10T04:43:40.997Z,1016.36
2016-12-10T04:44:07.112Z,1016.32
2016-12-10T04:44:33.215Z,1016.35
2016-12-10T04:44:59.312Z,1016.34
2016-12-10T04:45:25.423Z,1016.38
2016-12-10T04:45:51.534Z,1016.34
2016-12-10T04:46:17.626Z,1016.34
2016-12-10T04:46:43.732Z,1016.34
2016-12-10T04:47:09.830Z,1016.33
2016-12-10T04:47:35.939Z,1016.31
2016-12-10T04:48:02.042Z,1016.34
2016-12-10T04:48:28.138Z,1016.32
2016-12-10T04:48:54.246Z,1016.36
2016-12-10T04:49:20.360Z,1016.34
2016-12-10T04:49:46.453Z,1016.37
2016-12-10T04:50:12.563Z,1016.33
2016-12-10T04:50:38.699Z,1016.33
2016-12-10T04:51:04.795Z,1016.36
2016-12-10T04:51:30.921Z,1016.31
2016-12-10T04:51:57.033Z,1016.26
2016-12-10T04:52:23.137Z,1016.29
2016-12-10T04:52:49.235Z,1016.22
2016-12-10T04:53:15.346Z,1016.19
2016-12-10T04:53:41.446Z,1016.2
2016-12-10T04:54:07.539Z,1016.31
2016-12-10T04:54:33.653Z,1016.24
2016-12-10T04:54:59.761Z,1016.25
2016-12-10T04:55:25.857Z,1016.22
2016-12-10T04:55:51.964Z,1016.24
2016-12-10T04:56:18.077Z,1016.23
2016-12-10T04:56:44.173Z,1016.18
2016-12-10T04:57:10.278Z,1016.21
2016-12-10T04:57:36.393Z,1016.12
2016-12-10T04:58:02.485Z,1016.13
2016-12-10T04:58:28.590Z,1016.17
2016-12-10T04:58:54.690Z,1016.13
2016-12-10T04:59:20.795Z,1016.09
2016-12-10T04:59:46.907Z,1016.18
2016-12-10T05:00:12.999Z,1016.07
2016-12-10T05:00:39.154Z,1016.12
2016-12-10T05:01:05.270Z,1016.1
2016-12-10T05:01:31.366Z,1016.09
2016-12-10T05:01:57.471Z,1016.17
2016-12-10T05:02:23.582Z,1016.11
2016-12-10T05:02:49.681Z,1016.06
2016-12-10T05:03:15.775Z,1016.05
2016-12-10T05:03:41.883Z,1016.01
2016-12-10T05:04:07.991Z,1016.05
2016-12-10T05:04:34.094Z,1016.07
2016-12-10T05:05:00.191Z,1016.07
2016-12-10T05:05:26.296Z,1016.02
2016-12-10T05:05:52.445Z,1015.98
2016-12-10T05:06:18.550Z,1015.95
2016-12-10T05:06:44.645Z,1015.98
2016-12-10T05:07:10.764Z,1015.94
2016-12-10T05:07:36.868Z,1015.9
2016-12-10T05:08:02.967Z,1015.96
2016-12-10T05:08:29.080Z,1015.98
2016-12-10T05:08:55.185Z,1015.97
2016-12-10T05:09:21.294Z,1015.95
2016-12-10T05:09:47.391Z,1015.93
2016-12-10T05:10:13.492Z,1015.92
2016-12-10T05:10:39.605Z,1015.91
2016-12-10T05:11:05.710Z,1015.93
2016-12-10T05:11:31.806Z,1015.92
2016-12-10T05:11:57.920Z,1015.94
2016-12-10T05:12:24.025Z,1015.97
2016-12-10T05:12:50.123Z,1015.92
2016-12-10T05:13:16.229Z,1015.9
2016-12-10T05:13:42.339Z,1015.93
2016-12-10T05:14:08.430Z,1015.91
2016-12-10T05:14:34.533Z,1015.97
2016-12-10T05:15:00.646Z,1015.94
2016-12-10T05:15:26.737Z,1015.88
2016-12-10T05:15:52.846Z,1015.96
2016-12-10T05:16:18.951Z,1015.98
2016-12-10T05:16:45.049Z,1015.86
2016-12-10T05:17:11.149Z,1015.87